sensor_id;sensor_type;location;lat;lon;timestamp;temperature;humidity
34542;DHT22;20784;51.332;12.410;2023-05-31T00:01:12;15.10;99.90
34542;DHT22;20784;51.332;12.410;2023-05-31T00:03:38;15.00;99.90
34542;DHT22;20784;51.332;12.410;2023-05-31T00:06:10;15.00;99.90
34542;DHT22;20784;51.332;12.410;2023-05-31T00:08:36;15.00;99.90
34542;DHT22;20784;51.332;12.410;2023-05-31T00:11:02;15.00;99.90
34542;DHT22;20784;51.332;12.410;2023-05-31T00:13:30;14.90;99.90
34542;DHT22;20784;51.332;12.410;2023-05-31T00:15:55;14.90;1.00
34542;DHT22;20784;51.332;12.410;2023-05-31T00:18:21;14.90;1.00
34542;DHT22;20784;51.332;12.410;2023-05-31T00:20:49;14.90;99.90
34542;DHT22;20784;51.332;12.410;2023-05-31T00:23:17;14.90;1.00
34542;DHT22;20784;51.332;12.410;2023-05-31T00:25:43;14.70;1.00
34542;DHT22;20784;51.332;12.410;2023-05-31T00:28:16;14.80;1.00
34542;DHT22;20784;51.332;12.410;2023-05-31T00:30:49;14.80;1.00
34542;DHT22;20784;51.332;12.410;2023-05-31T00:33:18;14.60;1.00
34542;DHT22;20784;51.332;12.410;2023-05-31T00:35:46;14.70;1.00
34542;DHT22;20784;51.332;12.410;2023-05-31T00:38:12;14.60;1.00
34542;DHT22;20784;51.332;12.410;2023-05-31T00:40:38;14.60;1.00
34542;DHT22;20784;51.332;12.410;2023-05-31T00:43:17;14.60;1.00
34542;DHT22;20784;51.332;12.410;2023-05-31T00:45:45;14.60;1.00
34542;DHT22;20784;51.332;12.410;2023-05-31T00:48:17;14.50;1.00
34542;DHT22;20784;51.332;12.410;2023-05-31T00:50:46;14.60;1.00
34542;DHT22;20784;51.332;12.410;2023-05-31T00:53:13;14.60;1.00
34542;DHT22;20784;51.332;12.410;2023-05-31T00:55:42;14.50;1.00
34542;DHT22;20784;51.332;12.410;2023-05-31T00:58:23;14.50;1.00
34542;DHT22;20784;51.332;12.410;2023-05-31T01:00:49;14.50;1.00
34542;DHT22;20784;51.332;12.410;2023-05-31T01:03:15;14.40;1.00
34542;DHT22;20784;51.332;12.410;2023-05-31T01:05:46;14.40;1.00
34542;DHT22;20784;51.332;12.410;2023-05-31T01:08:14;14.30;1.00
34542;DHT22;20784;51.332;12.410;2023-05-31T01:10:42;14.40;1.00
34542;DHT22;20784;51.332;12.410;2023-05-31T01:13:36;14.40;1.00
34542;DHT22;20784;51.332;12.410;2023-05-31T01:16:25;14.40;1.00
34542;DHT22;20784;51.332;12.410;2023-05-31T01:19:03;14.40;1.00
34542;DHT22;20784;51.332;12.410;2023-05-31T01:24:36;14.30;1.00
34542;DHT22;20784;51.332;12.410;2023-05-31T01:27:07;14.30;1.00
34542;DHT22;20784;51.332;12.410;2023-05-31T01:29:34;14.30;1.00
34542;DHT22;20784;51.332;12.410;2023-05-31T01:32:01;14.30;1.00
34542;DHT22;20784;51.332;12.410;2023-05-31T01:34:28;14.20;1.00
34542;DHT22;20784;51.332;12.410;2023-05-31T01:36:56;14.10;1.00
34542;DHT22;20784;51.332;12.410;2023-05-31T01:39:21;14.20;1.00
34542;DHT22;20784;51.332;12.410;2023-05-31T01:41:48;14.10;1.00
34542;DHT22;20784;51.332;12.410;2023-05-31T01:44:16;14.10;1.00
34542;DHT22;20784;51.332;12.410;2023-05-31T01:46:47;14.00;1.00
34542;DHT22;20784;51.332;12.410;2023-05-31T01:49:14;14.00;99.90
34542;DHT22;20784;51.332;12.410;2023-05-31T01:51:41;14.00;99.90
34542;DHT22;20784;51.332;12.410;2023-05-31T01:54:10;14.00;99.90
34542;DHT22;20784;51.332;12.410;2023-05-31T01:56:39;13.90;99.90
34542;DHT22;20784;51.332;12.410;2023-05-31T01:59:06;14.00;1.00
34542;DHT22;20784;51.332;12.410;2023-05-31T02:01:32;13.90;1.00
34542;DHT22;20784;51.332;12.410;2023-05-31T02:03:58;13.80;1.00
34542;DHT22;20784;51.332;12.410;2023-05-31T02:06:23;13.80;1.00
34542;DHT22;20784;51.332;12.410;2023-05-31T02:08:54;13.70;99.90
34542;DHT22;20784;51.332;12.410;2023-05-31T02:11:20;13.70;99.90
34542;DHT22;20784;51.332;12.410;2023-05-31T02:13:47;13.70;99.90
34542;DHT22;20784;51.332;12.410;2023-05-31T02:16:12;13.70;1.00
34542;DHT22;20784;51.332;12.410;2023-05-31T02:18:38;13.70;99.90
34542;DHT22;20784;51.332;12.410;2023-05-31T02:21:04;13.70;1.00
34542;DHT22;20784;51.332;12.410;2023-05-31T02:23:31;13.60;1.00
34542;DHT22;20784;51.332;12.410;2023-05-31T02:25:57;13.60;1.00
34542;DHT22;20784;51.332;12.410;2023-05-31T02:28:22;13.50;23.80
34542;DHT22;20784;51.332;12.410;2023-05-31T02:30:55;13.50;99.90
34542;DHT22;20784;51.332;12.410;2023-05-31T02:33:21;13.50;99.90
34542;DHT22;20784;51.332;12.410;2023-05-31T02:35:50;13.50;1.00
34542;DHT22;20784;51.332;12.410;2023-05-31T02:38:19;13.40;1.00
34542;DHT22;20784;51.332;12.410;2023-05-31T02:40:48;13.40;1.00
34542;DHT22;20784;51.332;12.410;2023-05-31T02:43:18;13.40;1.00
34542;DHT22;20784;51.332;12.410;2023-05-31T02:45:43;13.30;7.80
34542;DHT22;20784;51.332;12.410;2023-05-31T02:48:09;13.30;97.10
34542;DHT22;20784;51.332;12.410;2023-05-31T02:50:35;13.30;99.90
34542;DHT22;20784;51.332;12.410;2023-05-31T02:53:03;13.20;99.90
34542;DHT22;20784;51.332;12.410;2023-05-31T02:55:32;13.30;99.90
34542;DHT22;20784;51.332;12.410;2023-05-31T02:57:58;13.30;99.90
34542;DHT22;20784;51.332;12.410;2023-05-31T03:00:24;13.20;1.00
34542;DHT22;20784;51.332;12.410;2023-05-31T03:02:51;13.20;1.00
34542;DHT22;20784;51.332;12.410;2023-05-31T03:05:20;13.10;1.00
34542;DHT22;20784;51.332;12.410;2023-05-31T03:07:46;13.10;46.20
34542;DHT22;20784;51.332;12.410;2023-05-31T03:10:12;13.10;58.90
34542;DHT22;20784;51.332;12.410;2023-05-31T03:12:37;13.10;99.90
34542;DHT22;20784;51.332;12.410;2023-05-31T03:15:03;13.10;1.00
34542;DHT22;20784;51.332;12.410;2023-05-31T03:17:30;13.10;99.90
34542;DHT22;20784;51.332;12.410;2023-05-31T03:19:56;13.00;1.00
34542;DHT22;20784;51.332;12.410;2023-05-31T03:22:23;13.10;1.00
34542;DHT22;20784;51.332;12.410;2023-05-31T03:24:50;13.00;1.00
34542;DHT22;20784;51.332;12.410;2023-05-31T03:27:16;13.00;1.00
34542;DHT22;20784;51.332;12.410;2023-05-31T03:29:42;13.00;1.00
34542;DHT22;20784;51.332;12.410;2023-05-31T03:32:08;13.00;98.50
34542;DHT22;20784;51.332;12.410;2023-05-31T03:34:36;13.00;99.90
34542;DHT22;20784;51.332;12.410;2023-05-31T03:37:02;13.10;99.90
34542;DHT22;20784;51.332;12.410;2023-05-31T03:39:28;13.00;99.90
34542;DHT22;20784;51.332;12.410;2023-05-31T03:41:53;13.10;99.90
34542;DHT22;20784;51.332;12.410;2023-05-31T03:44:19;13.00;99.90
34542;DHT22;20784;51.332;12.410;2023-05-31T03:46:44;13.10;99.90
34542;DHT22;20784;51.332;12.410;2023-05-31T03:49:11;13.00;99.90
34542;DHT22;20784;51.332;12.410;2023-05-31T03:51:36;13.00;99.90
34542;DHT22;20784;51.332;12.410;2023-05-31T03:54:05;13.10;1.00
34542;DHT22;20784;51.332;12.410;2023-05-31T03:56:30;13.00;1.00
34542;DHT22;20784;51.332;12.410;2023-05-31T03:58:56;13.10;1.00
34542;DHT22;20784;51.332;12.410;2023-05-31T04:01:28;13.10;1.00
34542;DHT22;20784;51.332;12.410;2023-05-31T04:03:53;13.10;1.00
34542;DHT22;20784;51.332;12.410;2023-05-31T04:06:19;13.10;1.00
34542;DHT22;20784;51.332;12.410;2023-05-31T04:08:45;13.20;1.00
34542;DHT22;20784;51.332;12.410;2023-05-31T04:11:11;13.30;99.90
34542;DHT22;20784;51.332;12.410;2023-05-31T04:13:36;13.20;1.00
34542;DHT22;20784;51.332;12.410;2023-05-31T04:16:05;13.30;1.00
34542;DHT22;20784;51.332;12.410;2023-05-31T04:18:31;13.30;99.90
34542;DHT22;20784;51.332;12.410;2023-05-31T04:20:56;13.40;99.90
34542;DHT22;20784;51.332;12.410;2023-05-31T04:23:22;13.40;1.00
34542;DHT22;20784;51.332;12.410;2023-05-31T04:25:47;13.50;1.00
34542;DHT22;20784;51.332;12.410;2023-05-31T04:28:14;13.40;1.00
34542;DHT22;20784;51.332;12.410;2023-05-31T04:30:40;13.50;1.00
34542;DHT22;20784;51.332;12.410;2023-05-31T04:33:06;13.50;99.90
34542;DHT22;20784;51.332;12.410;2023-05-31T04:35:32;13.50;1.00
34542;DHT22;20784;51.332;12.410;2023-05-31T04:37:59;13.50;1.00
34542;DHT22;20784;51.332;12.410;2023-05-31T04:40:26;13.60;99.90
34542;DHT22;20784;51.332;12.410;2023-05-31T04:42:51;13.60;99.90
34542;DHT22;20784;51.332;12.410;2023-05-31T04:45:21;13.70;99.90
34542;DHT22;20784;51.332;12.410;2023-05-31T04:47:47;13.80;99.90
34542;DHT22;20784;51.332;12.410;2023-05-31T04:50:17;13.80;60.50
34542;DHT22;20784;51.332;12.410;2023-05-31T04:52:45;14.00;1.00
34542;DHT22;20784;51.332;12.410;2023-05-31T04:55:18;13.90;1.00
34542;DHT22;20784;51.332;12.410;2023-05-31T04:57:44;14.10;1.00
34542;DHT22;20784;51.332;12.410;2023-05-31T05:00:10;14.10;99.90
34542;DHT22;20784;51.332;12.410;2023-05-31T05:02:40;14.20;99.90
34542;DHT22;20784;51.332;12.410;2023-05-31T05:05:06;14.20;1.00
34542;DHT22;20784;51.332;12.410;2023-05-31T05:07:32;14.30;1.00
34542;DHT22;20784;51.332;12.410;2023-05-31T05:10:03;14.40;99.90
34542;DHT22;20784;51.332;12.410;2023-05-31T05:13:01;14.40;99.90
34542;DHT22;20784;51.332;12.410;2023-05-31T05:15:57;14.50;96.50
34542;DHT22;20784;51.332;12.410;2023-05-31T05:18:23;14.60;99.90
34542;DHT22;20784;51.332;12.410;2023-05-31T05:20:52;14.60;99.90
34542;DHT22;20784;51.332;12.410;2023-05-31T05:23:18;14.60;99.90
34542;DHT22;20784;51.332;12.410;2023-05-31T05:25:54;14.70;99.90
34542;DHT22;20784;51.332;12.410;2023-05-31T05:28:20;14.80;90.40
34542;DHT22;20784;51.332;12.410;2023-05-31T05:30:48;14.80;5.90
34542;DHT22;20784;51.332;12.410;2023-05-31T05:33:25;14.90;1.00
34542;DHT22;20784;51.332;12.410;2023-05-31T05:36:11;15.00;1.00
34542;DHT22;20784;51.332;12.410;2023-05-31T05:38:42;15.10;99.90
34542;DHT22;20784;51.332;12.410;2023-05-31T05:44:31;15.20;99.90
34542;DHT22;20784;51.332;12.410;2023-05-31T05:46:57;15.30;75.30
34542;DHT22;20784;51.332;12.410;2023-05-31T05:49:32;15.30;1.00
34542;DHT22;20784;51.332;12.410;2023-05-31T05:52:00;15.40;1.00
34542;DHT22;20784;51.332;12.410;2023-05-31T05:54:33;15.50;1.00
34542;DHT22;20784;51.332;12.410;2023-05-31T05:57:15;15.60;1.00
34542;DHT22;20784;51.332;12.410;2023-05-31T05:59:42;15.60;1.00
34542;DHT22;20784;51.332;12.410;2023-05-31T06:02:11;15.70;1.00
34542;DHT22;20784;51.332;12.410;2023-05-31T06:04:46;15.80;1.00
34542;DHT22;20784;51.332;12.410;2023-05-31T06:07:18;15.90;1.00
34542;DHT22;20784;51.332;12.410;2023-05-31T06:09:46;15.90;99.90
34542;DHT22;20784;51.332;12.410;2023-05-31T06:12:12;15.90;99.90
34542;DHT22;20784;51.332;12.410;2023-05-31T06:15:21;16.00;99.90
34542;DHT22;20784;51.332;12.410;2023-05-31T06:17:59;16.00;99.90
34542;DHT22;20784;51.332;12.410;2023-05-31T06:20:48;16.10;99.90
34542;DHT22;20784;51.332;12.410;2023-05-31T06:23:54;16.20;99.90
34542;DHT22;20784;51.332;12.410;2023-05-31T06:26:46;16.30;99.90
34542;DHT22;20784;51.332;12.410;2023-05-31T06:29:12;16.40;99.90
34542;DHT22;20784;51.332;12.410;2023-05-31T06:31:37;16.50;99.90
34542;DHT22;20784;51.332;12.410;2023-05-31T06:34:28;16.50;97.60
34542;DHT22;20784;51.332;12.410;2023-05-31T06:37:07;16.60;1.00
34542;DHT22;20784;51.332;12.410;2023-05-31T06:39:46;16.70;99.90
34542;DHT22;20784;51.332;12.410;2023-05-31T06:42:17;16.90;99.90
34542;DHT22;20784;51.332;12.410;2023-05-31T06:44:52;17.10;24.20
34542;DHT22;20784;51.332;12.410;2023-05-31T06:47:18;17.20;1.00
34542;DHT22;20784;51.332;12.410;2023-05-31T06:49:53;17.30;1.00
34542;DHT22;20784;51.332;12.410;2023-05-31T06:52:35;17.40;1.00
34542;DHT22;20784;51.332;12.410;2023-05-31T06:55:12;17.50;99.90
34542;DHT22;20784;51.332;12.410;2023-05-31T06:57:50;17.60;99.90
34542;DHT22;20784;51.332;12.410;2023-05-31T07:00:26;17.70;1.00
34542;DHT22;20784;51.332;12.410;2023-05-31T07:02:52;17.90;35.60
34542;DHT22;20784;51.332;12.410;2023-05-31T07:05:31;18.00;1.00
34542;DHT22;20784;51.332;12.410;2023-05-31T07:08:03;18.00;1.00
34542;DHT22;20784;51.332;12.410;2023-05-31T07:10:32;18.10;1.00
34542;DHT22;20784;51.332;12.410;2023-05-31T07:12:59;18.20;1.00
34542;DHT22;20784;51.332;12.410;2023-05-31T07:15:24;18.30;99.90
34542;DHT22;20784;51.332;12.410;2023-05-31T07:17:51;18.30;99.90
34542;DHT22;20784;51.332;12.410;2023-05-31T07:20:25;18.30;99.90
34542;DHT22;20784;51.332;12.410;2023-05-31T07:22:51;18.30;99.90
34542;DHT22;20784;51.332;12.410;2023-05-31T07:28:38;18.40;99.90
34542;DHT22;20784;51.332;12.410;2023-05-31T07:31:50;18.50;99.90
34542;DHT22;20784;51.332;12.410;2023-05-31T07:34:38;18.70;99.90
34542;DHT22;20784;51.332;12.410;2023-05-31T07:37:09;19.00;99.90
34542;DHT22;20784;51.332;12.410;2023-05-31T07:39:38;19.00;1.00
34542;DHT22;20784;51.332;12.410;2023-05-31T07:42:14;19.20;1.00
34542;DHT22;20784;51.332;12.410;2023-05-31T07:44:44;19.30;1.00
34542;DHT22;20784;51.332;12.410;2023-05-31T07:47:10;19.40;1.00
34542;DHT22;20784;51.332;12.410;2023-05-31T07:49:38;19.70;1.00
34542;DHT22;20784;51.332;12.410;2023-05-31T07:52:04;19.80;1.00
34542;DHT22;20784;51.332;12.410;2023-05-31T07:54:30;19.90;99.90
34542;DHT22;20784;51.332;12.410;2023-05-31T07:56:56;19.90;99.90
34542;DHT22;20784;51.332;12.410;2023-05-31T07:59:21;19.90;99.90
34542;DHT22;20784;51.332;12.410;2023-05-31T08:01:47;20.00;99.90
34542;DHT22;20784;51.332;12.410;2023-05-31T08:04:16;20.50;99.90
34542;DHT22;20784;51.332;12.410;2023-05-31T08:06:42;20.70;99.90
34542;DHT22;20784;51.332;12.410;2023-05-31T08:09:10;20.90;99.90
34542;DHT22;20784;51.332;12.410;2023-05-31T08:11:39;21.10;99.90
34542;DHT22;20784;51.332;12.410;2023-05-31T08:14:05;21.40;99.90
34542;DHT22;20784;51.332;12.410;2023-05-31T08:16:32;21.60;99.90
34542;DHT22;20784;51.332;12.410;2023-05-31T08:19:03;21.80;99.90
34542;DHT22;20784;51.332;12.410;2023-05-31T08:21:37;21.90;1.00
34542;DHT22;20784;51.332;12.410;2023-05-31T08:24:17;22.00;1.00
34542;DHT22;20784;51.332;12.410;2023-05-31T08:26:53;22.30;1.00
34542;DHT22;20784;51.332;12.410;2023-05-31T08:29:27;22.60;1.00
34542;DHT22;20784;51.332;12.410;2023-05-31T08:32:12;22.70;1.00
34542;DHT22;20784;51.332;12.410;2023-05-31T08:35:01;22.90;1.00
34542;DHT22;20784;51.332;12.410;2023-05-31T08:37:52;23.10;1.00
34542;DHT22;20784;51.332;12.410;2023-05-31T08:40:23;23.40;1.00
34542;DHT22;20784;51.332;12.410;2023-05-31T08:43:08;23.50;99.90
34542;DHT22;20784;51.332;12.410;2023-05-31T08:45:44;23.60;99.90
34542;DHT22;20784;51.332;12.410;2023-05-31T08:48:38;23.50;99.90
34542;DHT22;20784;51.332;12.410;2023-05-31T08:54:30;23.30;99.90
34542;DHT22;20784;51.332;12.410;2023-05-31T08:57:01;23.50;99.90
34542;DHT22;20784;51.332;12.410;2023-05-31T08:59:30;23.50;99.90
34542;DHT22;20784;51.332;12.410;2023-05-31T09:02:09;23.50;99.90
34542;DHT22;20784;51.332;12.410;2023-05-31T09:04:44;23.80;99.90
34542;DHT22;20784;51.332;12.410;2023-05-31T09:07:16;24.00;99.90
34542;DHT22;20784;51.332;12.410;2023-05-31T09:09:46;24.20;99.90
34542;DHT22;20784;51.332;12.410;2023-05-31T09:12:15;24.30;99.90
34542;DHT22;20784;51.332;12.410;2023-05-31T09:14:45;24.50;99.90
34542;DHT22;20784;51.332;12.410;2023-05-31T09:17:14;24.80;99.90
34542;DHT22;20784;51.332;12.410;2023-05-31T09:19:52;24.90;99.90
34542;DHT22;20784;51.332;12.410;2023-05-31T09:22:42;25.20;99.90
34542;DHT22;20784;51.332;12.410;2023-05-31T09:25:46;25.40;99.90
34542;DHT22;20784;51.332;12.410;2023-05-31T09:28:18;25.40;83.90
34542;DHT22;20784;51.332;12.410;2023-05-31T09:31:03;25.40;75.80
34542;DHT22;20784;51.332;12.410;2023-05-31T09:33:43;25.00;62.00
34542;DHT22;20784;51.332;12.410;2023-05-31T09:36:31;25.20;69.90
34542;DHT22;20784;51.332;12.410;2023-05-31T09:39:19;25.30;54.90
34542;DHT22;20784;51.332;12.410;2023-05-31T09:41:57;25.40;42.60
34542;DHT22;20784;51.332;12.410;2023-05-31T09:44:28;25.50;41.30
34542;DHT22;20784;51.332;12.410;2023-05-31T09:46:54;25.70;34.30
34542;DHT22;20784;51.332;12.410;2023-05-31T09:49:20;25.70;40.90
34542;DHT22;20784;51.332;12.410;2023-05-31T09:51:53;25.80;26.90
34542;DHT22;20784;51.332;12.410;2023-05-31T09:54:19;25.70;14.80
34542;DHT22;20784;51.332;12.410;2023-05-31T09:56:50;25.90;2.50
34542;DHT22;20784;51.332;12.410;2023-05-31T09:59:16;26.20;1.00
34542;DHT22;20784;51.332;12.410;2023-05-31T10:01:42;26.30;1.00
34542;DHT22;20784;51.332;12.410;2023-05-31T10:04:12;25.90;1.00
34542;DHT22;20784;51.332;12.410;2023-05-31T10:06:58;25.90;1.00
34542;DHT22;20784;51.332;12.410;2023-05-31T10:09:31;25.90;1.00
34542;DHT22;20784;51.332;12.410;2023-05-31T10:12:07;25.90;1.00
34542;DHT22;20784;51.332;12.410;2023-05-31T10:14:39;26.00;1.00
34542;DHT22;20784;51.332;12.410;2023-05-31T10:17:33;26.10;1.00
34542;DHT22;20784;51.332;12.410;2023-05-31T10:30:16;26.60;1.00
34542;DHT22;20784;51.332;12.410;2023-05-31T10:33:12;26.80;1.00
34542;DHT22;20784;51.332;12.410;2023-05-31T10:36:03;26.60;1.00
34542;DHT22;20784;51.332;12.410;2023-05-31T10:42:38;26.80;1.00
34542;DHT22;20784;51.332;12.410;2023-05-31T10:58:39;27.00;1.00
34542;DHT22;20784;51.332;12.410;2023-05-31T11:01:44;27.00;1.00
34542;DHT22;20784;51.332;12.410;2023-05-31T11:04:42;27.00;1.00
34542;DHT22;20784;51.332;12.410;2023-05-31T11:14:09;27.50;1.00
34542;DHT22;20784;51.332;12.410;2023-05-31T11:19:40;27.30;1.00
34542;DHT22;20784;51.332;12.410;2023-05-31T11:22:21;27.30;1.00
34542;DHT22;20784;51.332;12.410;2023-05-31T11:27:38;27.50;1.00
34542;DHT22;20784;51.332;12.410;2023-05-31T11:30:34;27.70;1.00
34542;DHT22;20784;51.332;12.410;2023-05-31T11:33:43;27.60;1.00
34542;DHT22;20784;51.332;12.410;2023-05-31T11:36:22;27.60;1.00
34542;DHT22;20784;51.332;12.410;2023-05-31T11:39:05;27.70;1.00
34542;DHT22;20784;51.332;12.410;2023-05-31T11:41:33;27.60;1.00
34542;DHT22;20784;51.332;12.410;2023-05-31T11:44:04;27.50;1.00
34542;DHT22;20784;51.332;12.410;2023-05-31T11:53:57;28.20;1.00
34542;DHT22;20784;51.332;12.410;2023-05-31T11:56:36;28.80;1.00
34542;DHT22;20784;51.332;12.410;2023-05-31T11:59:42;28.80;1.00
34542;DHT22;20784;51.332;12.410;2023-05-31T12:08:25;29.40;1.00
34542;DHT22;20784;51.332;12.410;2023-05-31T12:10:51;29.10;1.00
34542;DHT22;20784;51.332;12.410;2023-05-31T12:13:22;29.00;1.00
34542;DHT22;20784;51.332;12.410;2023-05-31T12:16:05;28.50;1.00
34542;DHT22;20784;51.332;12.410;2023-05-31T12:18:34;28.40;1.00
34542;DHT22;20784;51.332;12.410;2023-05-31T12:21:06;28.10;1.00
34542;DHT22;20784;51.332;12.410;2023-05-31T12:23:33;28.10;1.00
34542;DHT22;20784;51.332;12.410;2023-05-31T12:26:22;28.20;1.00
34542;DHT22;20784;51.332;12.410;2023-05-31T12:28:51;28.20;1.00
34542;DHT22;20784;51.332;12.410;2023-05-31T12:31:22;28.20;1.00
34542;DHT22;20784;51.332;12.410;2023-05-31T12:34:13;28.60;1.00
34542;DHT22;20784;51.332;12.410;2023-05-31T12:36:49;28.90;1.00
34542;DHT22;20784;51.332;12.410;2023-05-31T12:39:18;28.70;1.00
34542;DHT22;20784;51.332;12.410;2023-05-31T12:41:46;28.60;1.00
34542;DHT22;20784;51.332;12.410;2023-05-31T12:44:20;28.60;1.00
34542;DHT22;20784;51.332;12.410;2023-05-31T12:46:50;28.70;1.00
34542;DHT22;20784;51.332;12.410;2023-05-31T12:51:47;29.00;1.00
34542;DHT22;20784;51.332;12.410;2023-05-31T12:54:16;29.10;1.00
34542;DHT22;20784;51.332;12.410;2023-05-31T12:56:42;29.00;1.00
34542;DHT22;20784;51.332;12.410;2023-05-31T12:59:08;28.90;1.00
34542;DHT22;20784;51.332;12.410;2023-05-31T13:01:36;29.00;1.00
34542;DHT22;20784;51.332;12.410;2023-05-31T13:04:04;29.30;1.00
34542;DHT22;20784;51.332;12.410;2023-05-31T13:06:31;29.40;1.00
34542;DHT22;20784;51.332;12.410;2023-05-31T13:08:57;29.40;1.00
34542;DHT22;20784;51.332;12.410;2023-05-31T13:11:28;29.30;1.00
34542;DHT22;20784;51.332;12.410;2023-05-31T13:13:53;29.20;1.00
34542;DHT22;20784;51.332;12.410;2023-05-31T13:16:19;29.00;1.00
34542;DHT22;20784;51.332;12.410;2023-05-31T13:18:46;29.00;1.00
34542;DHT22;20784;51.332;12.410;2023-05-31T13:21:12;29.00;1.00
34542;DHT22;20784;51.332;12.410;2023-05-31T13:23:38;29.10;1.00
34542;DHT22;20784;51.332;12.410;2023-05-31T13:26:03;28.60;1.00
34542;DHT22;20784;51.332;12.410;2023-05-31T13:28:32;28.40;1.00
34542;DHT22;20784;51.332;12.410;2023-05-31T13:31:06;28.30;1.00
34542;DHT22;20784;51.332;12.410;2023-05-31T13:33:35;28.30;1.00
34542;DHT22;20784;51.332;12.410;2023-05-31T13:36:03;28.30;1.00
34542;DHT22;20784;51.332;12.410;2023-05-31T13:38:29;28.40;1.00
34542;DHT22;20784;51.332;12.410;2023-05-31T13:40:58;28.30;1.00
34542;DHT22;20784;51.332;12.410;2023-05-31T13:43:44;28.20;1.00
34542;DHT22;20784;51.332;12.410;2023-05-31T13:46:10;28.20;1.00
34542;DHT22;20784;51.332;12.410;2023-05-31T13:48:40;28.30;1.00
34542;DHT22;20784;51.332;12.410;2023-05-31T13:51:06;28.50;1.00
34542;DHT22;20784;51.332;12.410;2023-05-31T13:53:34;28.60;1.00
34542;DHT22;20784;51.332;12.410;2023-05-31T13:56:00;28.70;1.00
34542;DHT22;20784;51.332;12.410;2023-05-31T13:58:26;28.90;1.00
34542;DHT22;20784;51.332;12.410;2023-05-31T14:00:52;29.00;1.00
34542;DHT22;20784;51.332;12.410;2023-05-31T14:03:34;29.20;1.00
34542;DHT22;20784;51.332;12.410;2023-05-31T14:06:00;29.20;1.00
34542;DHT22;20784;51.332;12.410;2023-05-31T14:08:26;29.40;1.00
34542;DHT22;20784;51.332;12.410;2023-05-31T14:10:58;29.50;1.00
34542;DHT22;20784;51.332;12.410;2023-05-31T14:13:24;29.60;1.00
34542;DHT22;20784;51.332;12.410;2023-05-31T14:15:58;29.40;1.00
34542;DHT22;20784;51.332;12.410;2023-05-31T14:18:27;29.40;1.00
34542;DHT22;20784;51.332;12.410;2023-05-31T14:20:56;29.10;1.00
34542;DHT22;20784;51.332;12.410;2023-05-31T14:26:09;28.70;1.00
34542;DHT22;20784;51.332;12.410;2023-05-31T14:28:45;28.80;1.00
34542;DHT22;20784;51.332;12.410;2023-05-31T14:31:16;29.00;1.00
34542;DHT22;20784;51.332;12.410;2023-05-31T14:33:42;28.70;1.00
34542;DHT22;20784;51.332;12.410;2023-05-31T14:36:08;28.60;1.00
34542;DHT22;20784;51.332;12.410;2023-05-31T14:38:38;28.40;1.00
34542;DHT22;20784;51.332;12.410;2023-05-31T14:41:06;28.30;1.00
34542;DHT22;20784;51.332;12.410;2023-05-31T14:43:34;28.00;1.00
34542;DHT22;20784;51.332;12.410;2023-05-31T14:46:03;27.80;1.00
34542;DHT22;20784;51.332;12.410;2023-05-31T14:48:48;27.70;1.00
34542;DHT22;20784;51.332;12.410;2023-05-31T14:51:30;27.60;1.00
34542;DHT22;20784;51.332;12.410;2023-05-31T14:54:30;27.50;1.00
34542;DHT22;20784;51.332;12.410;2023-05-31T15:04:35;27.40;1.00
34542;DHT22;20784;51.332;12.410;2023-05-31T15:11:28;27.50;1.00
34542;DHT22;20784;51.332;12.410;2023-05-31T15:14:18;27.50;1.00
34542;DHT22;20784;51.332;12.410;2023-05-31T15:16:46;27.30;1.00
34542;DHT22;20784;51.332;12.410;2023-05-31T15:19:52;27.30;1.00
34542;DHT22;20784;51.332;12.410;2023-05-31T15:22:33;27.40;1.00
34542;DHT22;20784;51.332;12.410;2023-05-31T15:25:33;27.20;1.00
34542;DHT22;20784;51.332;12.410;2023-05-31T15:28:33;27.30;1.00
34542;DHT22;20784;51.332;12.410;2023-05-31T15:34:11;27.20;1.00
34542;DHT22;20784;51.332;12.410;2023-05-31T15:37:19;27.10;1.00
34542;DHT22;20784;51.332;12.410;2023-05-31T15:40:28;27.10;1.00
34542;DHT22;20784;51.332;12.410;2023-05-31T15:43:10;27.10;1.00
34542;DHT22;20784;51.332;12.410;2023-05-31T15:49:15;27.30;1.00
34542;DHT22;20784;51.332;12.410;2023-05-31T15:52:17;27.40;1.00
34542;DHT22;20784;51.332;12.410;2023-05-31T15:55:21;27.50;1.00
34542;DHT22;20784;51.332;12.410;2023-05-31T15:58:03;27.50;1.00
34542;DHT22;20784;51.332;12.410;2023-05-31T16:00:48;27.40;1.00
34542;DHT22;20784;51.332;12.410;2023-05-31T16:03:41;27.30;1.00
34542;DHT22;20784;51.332;12.410;2023-05-31T16:06:30;27.20;1.00
34542;DHT22;20784;51.332;12.410;2023-05-31T16:09:10;27.10;1.00
34542;DHT22;20784;51.332;12.410;2023-05-31T16:11:53;27.20;1.00
34542;DHT22;20784;51.332;12.410;2023-05-31T16:14:19;27.10;1.00
34542;DHT22;20784;51.332;12.410;2023-05-31T16:16:45;27.10;1.00
34542;DHT22;20784;51.332;12.410;2023-05-31T16:19:18;27.00;1.00
34542;DHT22;20784;51.332;12.410;2023-05-31T16:21:46;27.10;1.00
34542;DHT22;20784;51.332;12.410;2023-05-31T16:24:12;27.00;1.00
34542;DHT22;20784;51.332;12.410;2023-05-31T16:26:40;27.00;1.00
34542;DHT22;20784;51.332;12.410;2023-05-31T16:29:08;26.90;1.00
34542;DHT22;20784;51.332;12.410;2023-05-31T16:31:36;26.80;1.00
34542;DHT22;20784;51.332;12.410;2023-05-31T16:34:02;26.70;1.00
34542;DHT22;20784;51.332;12.410;2023-05-31T16:36:28;26.60;1.00
34542;DHT22;20784;51.332;12.410;2023-05-31T16:38:59;26.60;1.00
34542;DHT22;20784;51.332;12.410;2023-05-31T16:41:36;26.70;1.00
34542;DHT22;20784;51.332;12.410;2023-05-31T16:44:02;26.80;1.00
34542;DHT22;20784;51.332;12.410;2023-05-31T16:46:40;26.80;1.00
34542;DHT22;20784;51.332;12.410;2023-05-31T16:49:08;26.80;1.00
34542;DHT22;20784;51.332;12.410;2023-05-31T16:51:34;26.60;1.00
34542;DHT22;20784;51.332;12.410;2023-05-31T16:54:03;26.50;1.00
34542;DHT22;20784;51.332;12.410;2023-05-31T16:56:29;26.40;1.00
34542;DHT22;20784;51.332;12.410;2023-05-31T16:58:57;26.60;1.00
34542;DHT22;20784;51.332;12.410;2023-05-31T17:01:26;26.30;1.00
34542;DHT22;20784;51.332;12.410;2023-05-31T17:03:54;26.30;1.00
34542;DHT22;20784;51.332;12.410;2023-05-31T17:06:21;26.20;1.00
34542;DHT22;20784;51.332;12.410;2023-05-31T17:08:52;26.10;1.00
34542;DHT22;20784;51.332;12.410;2023-05-31T17:11:18;26.20;1.00
34542;DHT22;20784;51.332;12.410;2023-05-31T17:13:49;26.10;1.00
34542;DHT22;20784;51.332;12.410;2023-05-31T17:16:15;26.00;1.00
34542;DHT22;20784;51.332;12.410;2023-05-31T17:18:41;26.00;1.00
34542;DHT22;20784;51.332;12.410;2023-05-31T17:21:06;26.00;1.00
34542;DHT22;20784;51.332;12.410;2023-05-31T17:23:35;26.00;1.00
34542;DHT22;20784;51.332;12.410;2023-05-31T17:26:04;25.70;1.00
34542;DHT22;20784;51.332;12.410;2023-05-31T17:28:33;25.90;1.00